Time,TemperatureF,DewpointF,PressureIn,WindDirection,WindDirectionDegrees,WindSpeedMPH,WindSpeedGustMPH,Humidity,HourlyPrecipIn,Conditions,Clouds,dailyrainin,SoftwareType,DateUTC
2013-02-13 00:10:00,16.8,5.0,30.45,WSW,256,17.0,35.0,60,0.00,,,0.04,weatherlink.com 1.10,2013-02-13 07:10:00,
2013-02-13 00:25:00,16.8,5.0,30.45,SW,234,15.0,28.0,60,0.00,,,0.00,weatherlink.com 1.10,2013-02-13 07:25:00,
2013-02-13 00:40:00,16.8,5.0,30.45,West,281,14.0,36.0,61,0.00,,,0.00,weatherlink.com 1.10,2013-02-13 07:40:00,
2013-02-13 00:55:00,16.7,5.0,30.44,West,262,8.0,26.0,61,0.00,,,0.00,weatherlink.com 1.10,2013-02-13 07:55:00,
2013-02-13 01:10:00,16.8,6.0,30.43,SW,234,24.0,35.0,62,0.00,,,0.00,weatherlink.com 1.10,2013-02-13 08:10:00,
2013-02-13 01:25:00,17.0,6.0,30.43,SW,233,11.0,30.0,62,0.00,,,0.00,weatherlink.com 1.10,2013-02-13 08:25:00,
2013-02-13 01:40:00,17.5,6.0,30.42,WSW,240,13.0,34.0,62,0.00,,,0.00,weatherlink.com 1.10,2013-02-13 08:40:00,
2013-02-13 01:55:00,17.7,7.0,30.42,West,277,12.0,28.0,62,0.00,,,0.00,weatherlink.com 1.10,2013-02-13 08:55:00,
2013-02-13 02:10:00,17.7,7.0,30.40,WSW,254,12.0,25.0,62,0.00,,,0.00,weatherlink.com 1.10,2013-02-13 09:10:00,
2013-02-13 02:25:00,17.8,7.0,30.39,WNW,283,18.0,30.0,62,0.00,,,0.00,weatherlink.com 1.10,2013-02-13 09:25:00,
2013-02-13 02:40:00,18.0,7.0,30.37,WSW,237,12.0,29.0,63,0.00,,,0.00,weatherlink.com 1.10,2013-02-13 09:40:00,
2013-02-13 02:56:00,18.1,7.0,30.37,WSW,237,16.0,33.0,62,0.00,,,0.00,weatherlink.com 1.10,2013-02-13 09:56:00,
2013-02-13 03:10:00,18.2,7.0,30.37,West,279,12.0,30.0,62,0.00,,,0.00,weatherlink.com 1.10,2013-02-13 10:10:00,
2013-02-13 03:26:00,18.1,7.0,30.37,West,260,13.0,32.0,63,0.00,,,0.00,weatherlink.com 1.10,2013-02-13 10:26:00,
2013-02-13 03:40:00,18.1,7.0,30.36,WSW,254,21.0,31.0,63,0.00,,,0.00,weatherlink.com 1.10,2013-02-13 10:40:00,
2013-02-13 03:55:00,18.1,8.0,30.36,SSW,206,18.0,36.0,64,0.00,,,0.00,weatherlink.com 1.10,2013-02-13 10:55:00,
2013-02-13 04:10:00,18.2,8.0,30.36,WSW,254,19.0,36.0,64,0.00,,,0.00,weatherlink.com 1.10,2013-02-13 11:10:00,
2013-02-13 04:26:00,18.5,8.0,30.36,WSW,244,33.0,33.0,63,0.00,,,0.00,weatherlink.com 1.10,2013-02-13 11:26:00,
2013-02-13 04:41:00,18.5,7.0,30.35,West,261,10.0,36.0,62,0.00,,,0.00,weatherlink.com 1.10,2013-02-13 11:41:00,
2013-02-13 04:56:00,18.5,8.0,30.35,West,281,15.0,36.0,63,0.00,,,0.00,weatherlink.com 1.10,2013-02-13 11:56:00,
2013-02-13 05:11:00,18.6,7.0,30.35,West,261,18.0,31.0,62,0.00,,,0.00,weatherlink.com 1.10,2013-02-13 12:11:00,
2013-02-13 05:26:00,18.7,8.0,30.36,SW,225,31.0,33.0,62,0.00,,,0.00,weatherlink.com 1.10,2013-02-13 12:26:00,
2013-02-13 05:41:00,19.0,7.0,30.36,SW,236,22.0,32.0,61,0.00,,,0.00,weatherlink.com 1.10,2013-02-13 12:41:00,
2013-02-13 05:56:00,18.7,7.0,30.35,SW,230,25.0,35.0,61,0.00,,,0.00,weatherlink.com 1.10,2013-02-13 12:56:00,
2013-02-13 06:11:00,18.7,7.0,30.35,WSW,242,22.0,37.0,61,0.00,,,0.00,weatherlink.com 1.10,2013-02-13 13:11:00,
2013-02-13 06:26:00,18.8,7.0,30.34,WSW,238,21.0,34.0,61,0.00,,,0.00,weatherlink.com 1.10,2013-02-13 13:26:00,
2013-02-13 06:42:00,19.1,7.0,30.32,West,281,18.0,34.0,60,0.00,,,0.00,weatherlink.com 1.10,2013-02-13 13:42:00,
2013-02-13 06:57:00,19.5,7.0,30.32,SW,236,19.0,37.0,59,0.00,,,0.00,weatherlink.com 1.10,2013-02-13 13:57:00,
2013-02-13 07:12:00,19.6,7.0,30.33,WSW,258,20.0,36.0,59,0.00,,,0.00,weatherlink.com 1.10,2013-02-13 14:12:00,
2013-02-13 07:27:00,19.8,8.0,30.34,West,265,9.0,38.0,60,0.00,,,0.00,weatherlink.com 1.10,2013-02-13 14:27:00,
2013-02-13 07:42:00,20.3,8.0,30.34,SW,234,16.0,35.0,59,0.00,,,0.00,weatherlink.com 1.10,2013-02-13 14:42:00,
2013-02-13 07:57:00,20.7,8.0,30.34,SW,217,25.0,36.0,58,0.00,,,0.00,weatherlink.com 1.10,2013-02-13 14:57:00,
2013-02-13 08:12:00,20.9,8.0,30.34,SW,214,25.0,36.0,58,0.00,,,0.00,weatherlink.com 1.10,2013-02-13 15:12:00,
2013-02-13 08:28:00,21.2,8.0,30.33,SW,225,22.0,42.0,57,0.00,,,0.00,weatherlink.com 1.10,2013-02-13 15:28:00,
2013-02-13 08:43:00,23.1,8.0,30.32,WSW,242,43.0,43.0,53,0.00,,,0.00,weatherlink.com 1.10,2013-02-13 15:43:00,
2013-02-13 08:58:00,24.3,9.0,30.32,West,265,19.0,37.0,52,0.00,,,0.00,weatherlink.com 1.10,2013-02-13 15:58:00,
2013-02-13 09:13:00,23.4,8.0,30.31,SW,227,14.0,39.0,53,0.00,,,0.00,weatherlink.com 1.10,2013-02-13 16:13:00,
2013-02-13 09:28:00,22.9,8.0,30.32,WSW,241,13.0,39.0,53,0.00,,,0.00,weatherlink.com 1.10,2013-02-13 16:28:00,
2013-02-13 09:43:00,22.6,8.0,30.30,West,273,12.0,36.0,54,0.00,,,0.00,weatherlink.com 1.10,2013-02-13 16:43:00,
2013-02-13 09:58:00,22.2,8.0,30.31,WNW,296,11.0,38.0,55,0.00,,,0.00,weatherlink.com 1.10,2013-02-13 16:58:00,
2013-02-13 10:13:00,22.0,9.0,30.29,WNW,288,24.0,48.0,57,0.00,,,0.00,weatherlink.com 1.10,2013-02-13 17:13:00,
2013-02-13 10:28:00,22.3,9.0,30.31,WSW,244,23.0,41.0,57,0.00,,,0.00,weatherlink.com 1.10,2013-02-13 17:28:00,
2013-02-13 10:43:00,22.2,9.0,30.31,SW,233,27.0,54.0,57,0.00,,,0.00,weatherlink.com 1.10,2013-02-13 17:43:00,
2013-02-13 10:58:00,22.0,10.0,30.31,West,269,24.0,40.0,59,0.00,,,0.00,weatherlink.com 1.10,2013-02-13 17:58:00,
2013-02-13 11:13:00,22.2,10.0,30.31,West,274,16.0,37.0,59,0.00,,,0.00,weatherlink.com 1.10,2013-02-13 18:13:00,
2013-02-13 11:29:00,22.5,10.0,30.30,SW,217,23.0,40.0,59,0.00,,,0.00,weatherlink.com 1.10,2013-02-13 18:29:00,
2013-02-13 11:44:00,22.8,10.0,30.30,WSW,248,8.0,45.0,58,0.00,,,0.00,weatherlink.com 1.10,2013-02-13 18:44:00,
2013-02-13 11:59:00,23.3,10.0,30.30,SW,231,19.0,38.0,58,0.00,,,0.00,weatherlink.com 1.10,2013-02-13 18:59:00,
2013-02-13 12:14:00,23.9,11.0,30.34,WNW,290,10.0,25.0,57,0.00,,,0.00,weatherlink.com 1.10,2013-02-13 19:14:00,
2013-02-13 12:29:00,25.2,11.0,30.37,ENE,76,0.0,14.0,55,0.00,,,0.00,weatherlink.com 1.10,2013-02-13 19:29:00,
2013-02-13 12:44:00,25.6,10.0,30.38,North,5,1.0,11.0,53,0.00,,,0.00,weatherlink.com 1.10,2013-02-13 19:44:00,
2013-02-13 12:59:00,25.3,10.0,30.37,WNW,292,4.0,21.0,53,0.00,,,0.00,weatherlink.com 1.10,2013-02-13 19:59:00,
2013-02-13 13:14:00,24.8,10.0,30.38,SSW,205,9.0,24.0,54,0.00,,,0.00,weatherlink.com 1.10,2013-02-13 20:14:00,
2013-02-13 13:29:00,24.7,11.0,30.36,SSW,211,11.0,16.0,55,0.00,,,0.00,weatherlink.com 1.10,2013-02-13 20:29:00,
2013-02-13 13:44:00,24.4,11.0,30.35,NNW,342,1.0,19.0,57,0.00,,,0.00,weatherlink.com 1.10,2013-02-13 20:44:00,
2013-02-13 13:59:00,24.8,11.0,30.36,North,355,2.0,11.0,57,0.00,,,0.00,weatherlink.com 1.10,2013-02-13 20:59:00,
2013-02-13 14:14:00,25.3,12.0,30.37,NW,323,6.0,15.0,58,0.00,,,0.00,weatherlink.com 1.10,2013-02-13 21:14:00,
2013-02-13 14:29:00,26.0,13.0,30.37,NNW,327,15.0,25.0,57,0.00,,,0.00,weatherlink.com 1.10,2013-02-13 21:29:00,
2013-02-13 14:44:00,25.7,13.0,30.36,WNW,286,8.0,31.0,59,0.00,,,0.00,weatherlink.com 1.10,2013-02-13 21:44:00,
2013-02-13 14:59:00,25.7,13.0,30.36,WNW,290,5.0,28.0,60,0.00,,,0.00,weatherlink.com 1.10,2013-02-13 21:59:00,
2013-02-13 15:14:00,26.5,13.0,30.36,NNW,339,4.0,32.0,57,0.00,,,0.00,weatherlink.com 1.10,2013-02-13 22:14:00,
2013-02-13 15:29:00,27.0,13.0,30.36,NW,307,11.0,30.0,55,0.00,,,0.00,weatherlink.com 1.10,2013-02-13 22:29:00,
2013-02-13 15:45:00,27.0,13.0,30.34,NW,310,2.0,27.0,55,0.00,,,0.00,weatherlink.com 1.10,2013-02-13 22:45:00,
2013-02-13 16:00:00,26.7,12.0,30.33,NNW,343,9.0,34.0,54,0.00,,,0.00,weatherlink.com 1.10,2013-02-13 23:00:00,
2013-02-13 16:15:00,26.3,12.0,30.32,WSW,254,17.0,40.0,55,0.00,,,0.00,weatherlink.com 1.10,2013-02-13 23:15:00,
2013-02-13 16:30:00,25.7,12.0,30.32,WNW,286,18.0,42.0,56,0.00,,,0.00,weatherlink.com 1.10,2013-02-13 23:30:00,
2013-02-13 16:45:00,25.1,11.0,30.34,West,280,8.0,42.0,56,0.00,,,0.00,weatherlink.com 1.10,2013-02-13 23:45:00,
2013-02-13 17:00:00,24.9,11.0,30.34,WNW,291,10.0,34.0,57,0.00,,,0.00,weatherlink.com 1.10,2013-02-14 00:00:00,
2013-02-13 17:15:00,24.7,11.0,30.34,West,275,17.0,37.0,57,0.00,,,0.00,weatherlink.com 1.10,2013-02-14 00:15:00,
2013-02-13 17:30:00,24.5,11.0,30.34,WSW,247,14.0,34.0,57,0.00,,,0.00,weatherlink.com 1.10,2013-02-14 00:30:00,
2013-02-13 17:45:00,24.1,11.0,30.34,West,278,8.0,35.0,58,0.00,,,0.00,weatherlink.com 1.10,2013-02-14 00:45:00,
2013-02-13 18:00:00,23.8,11.0,30.33,WSW,256,9.0,32.0,58,0.00,,,0.00,weatherlink.com 1.10,2013-02-14 01:00:00,
2013-02-13 18:15:00,23.7,12.0,30.33,West,263,20.0,41.0,60,0.00,,,0.00,weatherlink.com 1.10,2013-02-14 01:15:00,
2013-02-13 18:30:00,23.6,11.0,30.33,WSW,246,16.0,43.0,59,0.00,,,0.00,weatherlink.com 1.10,2013-02-14 01:30:00,
2013-02-13 18:45:00,23.8,11.0,30.33,WSW,255,20.0,36.0,58,0.00,,,0.00,weatherlink.com 1.10,2013-02-14 01:45:00,
2013-02-13 19:01:00,23.7,11.0,30.33,WSW,244,18.0,37.0,58,0.00,,,0.00,weatherlink.com 1.10,2013-02-14 02:01:00,
2013-02-13 19:16:00,23.6,11.0,30.34,SW,229,19.0,38.0,60,0.00,,,0.00,weatherlink.com 1.10,2013-02-14 02:16:00,
2013-02-13 19:31:00,23.4,11.0,30.35,West,276,10.0,33.0,60,0.00,,,0.00,weatherlink.com 1.10,2013-02-14 02:31:00,
2013-02-13 19:46:00,23.4,11.0,30.34,SW,227,27.0,39.0,59,0.00,,,0.00,weatherlink.com 1.10,2013-02-14 02:46:00,
2013-02-13 20:01:00,23.4,12.0,30.34,WNW,299,6.0,32.0,61,0.00,,,0.00,weatherlink.com 1.10,2013-02-14 03:01:00,
2013-02-13 20:16:00,23.3,12.0,30.34,WNW,289,8.0,33.0,62,0.00,,,0.00,weatherlink.com 1.10,2013-02-14 03:16:00,
2013-02-13 20:31:00,23.4,11.0,30.35,SSW,204,20.0,33.0,60,0.00,,,0.00,weatherlink.com 1.10,2013-02-14 03:31:00,
2013-02-13 20:46:00,23.0,13.0,30.34,WSW,240,15.0,27.0,66,0.00,,,0.00,weatherlink.com 1.10,2013-02-14 03:46:00,
2013-02-13 21:01:00,22.9,12.0,30.33,West,271,2.0,33.0,64,0.00,,,0.00,weatherlink.com 1.10,2013-02-14 04:01:00,
2013-02-13 21:16:00,23.3,12.0,30.34,West,259,16.0,39.0,61,0.00,,,0.00,weatherlink.com 1.10,2013-02-14 04:16:00,
2013-02-13 21:46:00,23.5,12.0,30.35,SSW,206,21.0,35.0,61,0.00,,,0.00,weatherlink.com 1.10,2013-02-14 04:46:00,
2013-02-13 22:01:00,23.5,11.0,30.34,SW,220,19.0,38.0,58,0.00,,,0.00,weatherlink.com 1.10,2013-02-14 05:01:00,
2013-02-13 22:19:00,24.0,10.0,30.35,SW,233,17.0,36.0,55,0.00,,,0.00,weatherlink.com 1.10,2013-02-14 05:19:00,
2013-02-13 22:32:00,24.1,11.0,30.34,West,262,24.0,37.0,57,0.00,,,0.00,weatherlink.com 1.10,2013-02-14 05:32:00,
2013-02-13 22:47:00,24.3,10.0,30.32,West,259,9.0,36.0,55,0.00,,,0.00,weatherlink.com 1.10,2013-02-14 05:47:00,
2013-02-13 23:02:00,24.6,10.0,30.32,WSW,251,21.0,42.0,54,0.00,,,0.00,weatherlink.com 1.10,2013-02-14 06:02:00,
2013-02-13 23:17:00,24.8,10.0,30.32,SSW,210,20.0,45.0,54,0.00,,,0.00,weatherlink.com 1.10,2013-02-14 06:17:00,
2013-02-13 23:32:00,24.8,10.0,30.32,West,278,8.0,34.0,54,0.00,,,0.00,weatherlink.com 1.10,2013-02-14 06:32:00,
2013-02-13 23:47:00,24.8,11.0,30.33,SW,223,22.0,41.0,55,0.00,,,0.00,weatherlink.com 1.10,2013-02-14 06:47:00,